Terminal Aerodrome Forecast
Issued by NWS Green Bay, WI

Home | Current Version | Previous Version | Graphics & Text | Print | Product List | Glossary On
Versions: 1 2 3 4 5 6 7 8 9 10 11 12 13 14 15 16 17 18 19 20 21 22 23 24 25 26 27 28 29 30 31 32 33 34 35
000
FTUS43 KGRB 231519 AAA
TAFGRB
TAF AMD
KGRB 231519Z 2315/2412 36010KT P6SM BKN020
      TEMPO 2315/2318 SCT020
     FM231800 02009G15KT P6SM SCT015 BKN040
     FM240600 04012G21KT 6SM -SN OVC015
     FM240900 06017G27KT 2SM -SNPL OVC010
     FM241000 06017G28KT 2SM -FZRASN OVC008=

USA.gov is the U.S. government's official web portal to all federal, state and local government web resources and services.